Time;durP1;ratioP1;P1;durP2;ratioP2;P2;SDS_P1;SDS_P2;PMS_P1;PMS_P2;Temp;Humidity;BMP_temperature;BMP_pressure;BME280_temperature;BME280_humidity;BME280_pressure;Samples;Min_cycle;Max_cycle;Signal;HPM_P1;HPM_P2
2023/05/03 00:01:37;;;;;;;;;;;13.80;99.90;;;;;;5115159;28;19908;-74
2023/05/03 00:04:03;;;;;;;;;;;13.80;99.90;;;;;;5114973;28;19912;-77
2023/05/03 00:06:30;;;;;;;;;;;13.70;99.90;;;;;;5115249;28;20267;-74
2023/05/03 00:08:55;;;;;;;;;;;13.70;99.90;;;;;;5115253;28;19912;-76
2023/05/03 00:11:21;;;;;;;;;;;13.70;99.90;;;;;;5096643;28;20037;-79
2023/05/03 00:13:46;;;;;;;;;;;13.60;99.90;;;;;;5114868;28;19908;-75
2023/05/03 00:16:12;;;;;;;;;;;13.60;99.90;;;;;;5114856;28;19907;-78
2023/05/03 00:18:38;;;;;;;;;;;13.60;99.90;;;;;;5114801;28;20340;-77
2023/05/03 00:21:04;;;;;;;;;;;13.60;99.90;;;;;;5096479;28;19953;-76
2023/05/03 00:23:30;;;;;;;;;;;13.60;99.90;;;;;;5114593;28;19911;-77
2023/05/03 00:25:56;;;;;;;;;;;13.50;99.90;;;;;;5114750;28;19918;-77
2023/05/03 00:28:21;;;;;;;;;;;13.50;99.90;;;;;;5114639;28;19914;-77
2023/05/03 00:30:47;;;;;;;;;;;13.50;99.90;;;;;;5114582;28;19930;-76
2023/05/03 00:33:13;;;;;;;;;;;13.40;99.90;;;;;;5114535;28;19908;-77
2023/05/03 00:35:38;;;;;;;;;;;13.40;99.90;;;;;;5114525;28;19908;-74
2023/05/03 00:38:04;;;;;;;;;;;13.30;99.90;;;;;;5114777;28;19915;-75
2023/05/03 00:40:30;;;;;;;;;;;13.30;99.90;;;;;;5114352;28;19942;-74
2023/05/03 00:48:20;;;;;;;;;;;13.20;99.90;;;;;;4286147;23;19926;-76
2023/05/03 00:56:25;;;;;;;;;;;13.10;99.90;;;;;;4975004;28;20016;-75
2023/05/03 00:58:50;;;;;;;;;;;13.00;99.90;;;;;;4974973;28;19941;-75
2023/05/03 01:01:16;;;;;;;;;;;13.00;99.90;;;;;;4975381;28;19911;-73
2023/05/03 01:03:42;;;;;;;;;;;12.90;99.90;;;;;;4974967;28;20352;-72
2023/05/03 01:06:27;;;;;;;;;;;12.90;99.90;;;;;;4974940;28;20404;-71
2023/05/03 01:08:57;;;;;;;;;;;12.90;99.90;;;;;;4975065;28;19910;-75
2023/05/03 01:11:24;;;;;;;;;;;12.90;99.90;;;;;;4975318;28;20009;-76
2023/05/03 01:13:53;;;;;;;;;;;12.90;99.90;;;;;;4974852;28;20259;-74
2023/05/03 01:16:25;;;;;;;;;;;12.80;99.90;;;;;;4974776;28;20370;-75
2023/05/03 01:18:53;;;;;;;;;;;12.80;99.90;;;;;;4974803;28;19911;-76
2023/05/03 01:21:21;;;;;;;;;;;12.80;99.90;;;;;;4974739;28;19993;-74
2023/05/03 01:23:47;;;;;;;;;;;12.70;99.90;;;;;;4974865;28;19914;-73
2023/05/03 01:26:15;;;;;;;;;;;12.70;99.90;;;;;;4974853;28;19925;-76
2023/05/03 01:28:42;;;;;;;;;;;12.70;99.90;;;;;;4989613;28;19961;-77
2023/05/03 01:31:07;;;;;;;;;;;12.70;99.90;;;;;;4974671;28;20020;-73
2023/05/03 01:33:39;;;;;;;;;;;12.60;99.90;;;;;;4974668;28;20378;-74
2023/05/03 01:36:34;;;;;;;;;;;12.60;99.90;;;;;;4974863;28;20382;-78
2023/05/03 01:39:06;;;;;;;;;;;12.60;99.90;;;;;;4957772;28;19946;-74
2023/05/03 01:41:33;;;;;;;;;;;12.60;99.90;;;;;;4974575;28;19917;-73
2023/05/03 01:43:59;;;;;;;;;;;12.50;99.90;;;;;;4974649;28;20013;-73
2023/05/03 01:46:24;;;;;;;;;;;12.50;99.90;;;;;;4974410;28;19914;-75
2023/05/03 01:48:50;;;;;;;;;;;12.50;99.90;;;;;;4974661;28;19921;-74
2023/05/03 01:51:16;;;;;;;;;;;12.50;99.90;;;;;;4974451;28;19964;-74
2023/05/03 01:53:41;;;;;;;;;;;12.40;99.90;;;;;;4974417;28;20282;-78
2023/05/03 01:56:07;;;;;;;;;;;12.40;99.90;;;;;;4973438;28;19929;-75
2023/05/03 01:58:33;;;;;;;;;;;12.40;99.90;;;;;;4977653;28;19916;-76
2023/05/03 02:00:58;;;;;;;;;;;12.30;99.90;;;;;;4978111;28;19910;-74
2023/05/03 02:03:24;;;;;;;;;;;12.40;99.90;;;;;;4977957;28;19917;-75
2023/05/03 02:05:50;;;;;;;;;;;12.30;99.90;;;;;;4977934;28;19914;-74
2023/05/03 02:08:15;;;;;;;;;;;12.30;99.90;;;;;;4977921;28;19910;-75
2023/05/03 02:10:43;;;;;;;;;;;12.20;99.90;;;;;;4977880;28;19914;-73
2023/05/03 02:13:08;;;;;;;;;;;12.20;99.90;;;;;;4977878;28;20366;-76
2023/05/03 02:15:34;;;;;;;;;;;12.20;99.90;;;;;;4978275;28;19914;-74
2023/05/03 02:18:01;;;;;;;;;;;12.00;99.90;;;;;;4977506;28;20425;-75
2023/05/03 02:20:27;;;;;;;;;;;12.20;99.90;;;;;;4977732;28;20382;-75
2023/05/03 02:22:52;;;;;;;;;;;12.10;99.90;;;;;;4977579;28;19917;-76
2023/05/03 02:25:18;;;;;;;;;;;12.10;99.90;;;;;;4976328;28;19910;-75
2023/05/03 02:27:43;;;;;;;;;;;12.00;99.90;;;;;;4977555;28;20334;-73
2023/05/03 02:30:09;;;;;;;;;;;12.10;99.90;;;;;;4977714;28;19910;-74
2023/05/03 02:32:34;;;;;;;;;;;12.10;99.90;;;;;;4977699;28;20374;-75
2023/05/03 02:35:00;;;;;;;;;;;12.00;99.90;;;;;;4977605;28;19910;-74
2023/05/03 02:37:26;;;;;;;;;;;11.90;99.90;;;;;;4977367;28;19910;-75
2023/05/03 02:39:51;;;;;;;;;;;11.90;99.90;;;;;;4976022;28;19917;-75
2023/05/03 02:42:17;;;;;;;;;;;11.90;99.90;;;;;;4977290;28;19910;-76
2023/05/03 02:44:45;;;;;;;;;;;11.90;99.90;;;;;;4977200;28;19914;-75
2023/05/03 02:47:10;;;;;;;;;;;11.90;99.90;;;;;;4977172;28;19914;-74
2023/05/03 02:49:36;;;;;;;;;;;11.90;99.90;;;;;;4977566;28;19957;-73
2023/05/03 02:52:02;;;;;;;;;;;11.80;99.90;;;;;;4977139;28;19917;-79
2023/05/03 02:54:27;;;;;;;;;;;11.80;99.90;;;;;;4976820;28;19969;-75
2023/05/03 02:56:53;;;;;;;;;;;11.80;99.90;;;;;;4977614;28;19914;-77
2023/05/03 02:59:19;;;;;;;;;;;11.80;99.90;;;;;;4976997;28;19956;-73
2023/05/03 03:01:45;;;;;;;;;;;11.90;99.90;;;;;;4976958;28;20278;-74
2023/05/03 03:04:11;;;;;;;;;;;11.90;99.90;;;;;;4977156;28;19914;-73
2023/05/03 03:06:36;;;;;;;;;;;11.90;99.90;;;;;;4976884;28;19917;-74
2023/05/03 03:09:03;;;;;;;;;;;11.90;99.90;;;;;;4976304;28;20000;-75
2023/05/03 03:11:28;;;;;;;;;;;11.90;99.90;;;;;;4977289;28;19911;-74
2023/05/03 03:13:54;;;;;;;;;;;11.90;99.90;;;;;;4976690;28;19914;-74
2023/05/03 03:16:20;;;;;;;;;;;11.90;99.90;;;;;;4976718;28;19997;-72
2023/05/03 03:18:45;;;;;;;;;;;11.90;99.90;;;;;;4976625;28;19977;-73
2023/05/03 03:21:11;;;;;;;;;;;11.90;99.90;;;;;;4976606;28;19998;-76
2023/05/03 03:23:37;;;;;;;;;;;11.80;99.90;;;;;;4976472;28;19954;-73
2023/05/03 03:26:02;;;;;;;;;;;11.80;99.90;;;;;;4976642;28;19911;-75
2023/05/03 03:28:28;;;;;;;;;;;11.80;99.90;;;;;;4976548;28;20419;-72
2023/05/03 03:30:53;;;;;;;;;;;11.70;99.90;;;;;;4976485;28;19910;-74
2023/05/03 03:33:20;;;;;;;;;;;11.70;99.90;;;;;;4976363;28;20294;-75
2023/05/03 03:35:45;;;;;;;;;;;11.70;99.90;;;;;;4976457;28;20001;-76
2023/05/03 03:38:11;;;;;;;;;;;11.80;99.90;;;;;;4976258;28;19964;-74
2023/05/03 03:40:36;;;;;;;;;;;11.70;99.90;;;;;;4974942;28;19910;-76
2023/05/03 03:43:02;;;;;;;;;;;11.50;99.90;;;;;;4976123;28;20293;-73
2023/05/03 03:45:27;;;;;;;;;;;11.50;99.90;;;;;;4976180;28;19910;-75
2023/05/03 03:47:55;;;;;;;;;;;11.50;99.90;;;;;;4976139;28;20052;-72
2023/05/03 03:50:21;;;;;;;;;;;11.50;99.90;;;;;;4976057;28;19910;-73
2023/05/03 03:52:46;;;;;;;;;;;11.50;99.90;;;;;;4975945;28;20396;-74
2023/05/03 03:55:12;;;;;;;;;;;11.50;99.90;;;;;;4975719;28;19926;-75
2023/05/03 03:57:38;;;;;;;;;;;11.40;99.90;;;;;;4976391;28;20355;-73
2023/05/03 04:00:09;;;;;;;;;;;11.40;99.90;;;;;;4975825;28;20450;-76
2023/05/03 04:02:35;;;;;;;;;;;11.40;99.90;;;;;;4975870;28;19914;-77
2023/05/03 04:05:00;;;;;;;;;;;11.40;99.90;;;;;;4975668;28;19961;-74
2023/05/03 04:07:26;;;;;;;;;;;11.40;99.90;;;;;;4975647;28;19910;-75
2023/05/03 04:09:52;;;;;;;;;;;11.40;99.90;;;;;;4975667;28;19910;-73
2023/05/03 04:12:17;;;;;;;;;;;11.30;99.90;;;;;;4975855;28;19917;-73
2023/05/03 04:14:43;;;;;;;;;;;11.30;99.90;;;;;;4975574;28;19942;-73
2023/05/03 04:17:08;;;;;;;;;;;11.30;99.90;;;;;;4975752;28;20325;-74
2023/05/03 04:19:34;;;;;;;;;;;11.30;99.90;;;;;;4975512;28;19921;-74
2023/05/03 04:22:00;;;;;;;;;;;11.40;99.90;;;;;;4974733;28;19910;-73
2023/05/03 04:24:53;;;;;;;;;;;11.40;99.90;;;;;;4975374;28;19920;-74
2023/05/03 04:27:19;;;;;;;;;;;11.40;99.90;;;;;;4975462;28;19941;-77
2023/05/03 04:29:44;;;;;;;;;;;11.30;99.90;;;;;;4973841;28;20346;-78
2023/05/03 04:32:13;;;;;;;;;;;11.30;99.90;;;;;;4975295;28;20294;-77
2023/05/03 04:34:38;;;;;;;;;;;11.30;99.90;;;;;;4975252;28;20367;-77
2023/05/03 04:37:04;;;;;;;;;;;11.40;99.90;;;;;;4975500;28;20030;-74
2023/05/03 04:39:30;;;;;;;;;;;11.30;99.90;;;;;;4975218;28;19910;-75
2023/05/03 04:41:57;;;;;;;;;;;11.30;99.90;;;;;;4975243;28;19917;-76
2023/05/03 04:44:23;;;;;;;;;;;11.20;99.90;;;;;;4975287;28;19914;-77
2023/05/03 04:46:48;;;;;;;;;;;11.30;99.90;;;;;;4975127;28;19916;-74
2023/05/03 04:49:14;;;;;;;;;;;11.20;99.90;;;;;;4975266;28;19918;-74
2023/05/03 04:51:40;;;;;;;;;;;11.20;99.90;;;;;;4973519;28;19910;-76
2023/05/03 04:54:05;;;;;;;;;;;11.30;99.90;;;;;;4974984;28;19957;-73
2023/05/03 04:56:34;;;;;;;;;;;11.20;99.90;;;;;;4975190;28;19910;-72
2023/05/03 04:59:00;;;;;;;;;;;11.10;99.90;;;;;;4974989;28;19910;-73
2023/05/03 05:01:26;;;;;;;;;;;11.10;99.90;;;;;;4974972;28;19957;-74
2023/05/03 05:03:52;;;;;;;;;;;11.10;99.90;;;;;;4974843;28;19936;-76
2023/05/03 05:06:18;;;;;;;;;;;11.20;99.90;;;;;;4974906;28;20366;-75
2023/05/03 05:08:44;;;;;;;;;;;11.30;99.90;;;;;;4975206;28;20374;-76
2023/05/03 05:11:09;;;;;;;;;;;11.40;99.90;;;;;;4974876;28;20005;-76
2023/05/03 05:13:35;;;;;;;;;;;11.50;99.90;;;;;;4974870;28;19917;-76
2023/05/03 05:16:01;;;;;;;;;;;11.40;99.90;;;;;;4974809;28;20321;-76
2023/05/03 05:18:26;;;;;;;;;;;11.40;99.90;;;;;;4974789;28;19999;-75
2023/05/03 05:20:52;;;;;;;;;;;11.40;99.90;;;;;;4974735;28;19914;-74
2023/05/03 05:23:18;;;;;;;;;;;11.40;99.90;;;;;;4974861;28;20038;-76
2023/05/03 05:25:44;;;;;;;;;;;11.50;99.90;;;;;;4974730;28;19910;-76
2023/05/03 05:28:10;;;;;;;;;;;11.50;99.90;;;;;;4975214;28;19917;-77
2023/05/03 05:30:35;;;;;;;;;;;11.50;99.90;;;;;;4974428;28;19910;-75
2023/05/03 05:33:02;;;;;;;;;;;11.60;99.90;;;;;;4977097;28;19945;-74
2023/05/03 05:35:27;;;;;;;;;;;11.60;99.90;;;;;;4977165;28;20286;-75
2023/05/03 05:37:53;;;;;;;;;;;11.60;99.90;;;;;;4978513;28;19910;-76
2023/05/03 05:40:19;;;;;;;;;;;11.70;99.90;;;;;;4978600;28;19910;-77
2023/05/03 05:42:45;;;;;;;;;;;11.70;99.90;;;;;;4978584;28;20005;-76
2023/05/03 05:45:11;;;;;;;;;;;11.80;99.90;;;;;;4978254;28;19915;-77
2023/05/03 05:47:36;;;;;;;;;;;11.90;99.90;;;;;;4978199;28;19917;-75
2023/05/03 05:50:03;;;;;;;;;;;11.90;99.90;;;;;;4976786;28;19910;-74
2023/05/03 05:52:28;;;;;;;;;;;12.00;99.90;;;;;;4978216;28;19910;-77
2023/05/03 05:54:54;;;;;;;;;;;12.00;99.90;;;;;;4977849;28;19929;-74
2023/05/03 05:57:19;;;;;;;;;;;12.10;99.90;;;;;;4978119;28;19910;-76
2023/05/03 05:59:45;;;;;;;;;;;12.20;99.90;;;;;;4978242;28;19910;-76
2023/05/03 06:02:13;;;;;;;;;;;12.20;99.90;;;;;;4978038;28;20381;-74
2023/05/03 06:04:39;;;;;;;;;;;12.30;99.90;;;;;;4978112;28;19990;-76
2023/05/03 06:07:04;;;;;;;;;;;12.30;99.90;;;;;;4978291;28;20008;-74
2023/05/03 06:09:30;;;;;;;;;;;12.40;99.90;;;;;;4977907;28;19910;-74
2023/05/03 06:11:55;;;;;;;;;;;12.50;99.90;;;;;;4977759;28;20397;-75
2023/05/03 06:14:21;;;;;;;;;;;12.50;99.90;;;;;;4977839;28;20005;-73
2023/05/03 06:16:46;;;;;;;;;;;12.60;99.90;;;;;;4977715;28;19910;-74
2023/05/03 06:19:12;;;;;;;;;;;12.60;99.90;;;;;;4977681;28;20290;-74
2023/05/03 06:21:38;;;;;;;;;;;12.60;99.90;;;;;;4977790;28;19914;-75
2023/05/03 06:24:04;;;;;;;;;;;12.70;99.90;;;;;;4977615;28;20013;-74
2023/05/03 06:26:29;;;;;;;;;;;12.80;99.90;;;;;;4977688;28;19911;-75
2023/05/03 06:28:55;;;;;;;;;;;12.90;99.90;;;;;;4978110;28;19914;-77
2023/05/03 06:31:20;;;;;;;;;;;13.00;99.90;;;;;;4977546;28;19964;-74
2023/05/03 06:33:46;;;;;;;;;;;13.10;99.90;;;;;;4977510;28;19992;-74
2023/05/03 06:36:12;;;;;;;;;;;13.10;99.90;;;;;;4977548;28;19910;-74
2023/05/03 06:38:38;;;;;;;;;;;13.30;99.90;;;;;;4977418;28;19910;-72
2023/05/03 06:41:04;;;;;;;;;;;13.30;99.90;;;;;;4977843;28;19910;-75
2023/05/03 06:43:29;;;;;;;;;;;13.40;99.90;;;;;;4976361;28;19921;-76
2023/05/03 06:45:55;;;;;;;;;;;13.50;99.90;;;;;;4977261;28;20298;-76
2023/05/03 06:48:20;;;;;;;;;;;13.60;99.90;;;;;;4977158;28;19937;-76
2023/05/03 06:50:46;;;;;;;;;;;13.70;99.90;;;;;;4977176;28;19914;-76
2023/05/03 06:53:11;;;;;;;;;;;13.80;99.90;;;;;;4977439;28;19910;-77
2023/05/03 06:55:37;;;;;;;;;;;14.50;99.90;;;;;;4977051;28;19922;-77
2023/05/03 06:58:08;;;;;;;;;;;16.20;99.90;;;;;;4977092;28;20370;-74
2023/05/03 07:00:34;;;;;;;;;;;17.70;99.90;;;;;;4977187;28;19910;-74
2023/05/03 07:03:00;;;;;;;;;;;18.60;99.90;;;;;;4976907;28;19910;-77
2023/05/03 07:05:26;;;;;;;;;;;19.10;99.90;;;;;;4977384;28;19950;-74
2023/05/03 07:07:51;;;;;;;;;;;18.90;99.90;;;;;;4976912;28;20328;-78
2023/05/03 07:10:17;;;;;;;;;;;19.00;99.90;;;;;;4977057;28;19911;-75
2023/05/03 07:12:42;;;;;;;;;;;18.60;99.90;;;;;;4976773;28;19913;-77
2023/05/03 07:15:08;;;;;;;;;;;18.50;99.90;;;;;;4976744;28;20441;-77
2023/05/03 07:17:34;;;;;;;;;;;18.30;99.90;;;;;;4976618;28;19933;-77
2023/05/03 07:20:00;;;;;;;;;;;17.80;99.90;;;;;;4976654;28;20018;-75
2023/05/03 07:22:26;;;;;;;;;;;17.80;99.90;;;;;;4976931;28;19921;-77
2023/05/03 07:24:53;;;;;;;;;;;17.50;99.90;;;;;;4976606;28;19914;-76
2023/05/03 07:27:19;;;;;;;;;;;17.60;99.90;;;;;;4977065;28;19910;-74
2023/05/03 07:29:44;;;;;;;;;;;17.60;99.90;;;;;;4976866;28;19929;-78
2023/05/03 07:32:11;;;;;;;;;;;17.70;99.90;;;;;;4976591;28;20331;-77
2023/05/03 07:34:36;;;;;;;;;;;17.90;99.90;;;;;;4976371;28;20262;-74
2023/05/03 07:37:02;;;;;;;;;;;18.20;99.90;;;;;;4976323;28;19961;-77
2023/05/03 07:39:27;;;;;;;;;;;18.10;99.90;;;;;;4976706;28;19932;-77
2023/05/03 07:41:53;;;;;;;;;;;18.10;99.90;;;;;;4976651;28;19910;-77
2023/05/03 07:44:18;;;;;;;;;;;18.20;99.90;;;;;;4976076;28;19914;-75
2023/05/03 07:46:44;;;;;;;;;;;18.50;99.90;;;;;;4976138;28;19914;-75
2023/05/03 07:49:10;;;;;;;;;;;18.50;99.90;;;;;;4976112;28;20330;-76
2023/05/03 07:51:36;;;;;;;;;;;18.60;99.90;;;;;;4976075;28;20382;-78
2023/05/03 07:54:03;;;;;;;;;;;19.00;99.90;;;;;;4975868;28;20005;-75
2023/05/03 07:56:28;;;;;;;;;;;19.10;99.90;;;;;;4976044;28;20005;-76
2023/05/03 07:58:54;;;;;;;;;;;19.20;99.90;;;;;;4975897;28;20001;-78
2023/05/03 08:01:22;;;;;;;;;;;19.30;99.90;;;;;;4975827;28;19910;-75
2023/05/03 08:03:51;;;;;;;;;;;19.60;99.90;;;;;;4976113;28;19914;-77
2023/05/03 08:06:17;;;;;;;;;;;19.70;99.90;;;;;;4975705;28;19914;-75
2023/05/03 08:08:42;;;;;;;;;;;20.00;99.90;;;;;;4975686;28;20401;-77
2023/05/03 08:11:08;;;;;;;;;;;20.00;99.90;;;;;;4975683;28;20000;-76
2023/05/03 08:13:33;;;;;;;;;;;20.20;99.90;;;;;;4975619;28;19911;-75
2023/05/03 08:15:59;;;;;;;;;;;20.40;99.90;;;;;;4975600;28;19910;-76
2023/05/03 08:18:25;;;;;;;;;;;20.50;99.90;;;;;;4975648;28;19914;-77
2023/05/03 08:20:51;;;;;;;;;;;20.90;99.90;;;;;;4975569;28;19938;-75
2023/05/03 08:23:18;;;;;;;;;;;21.40;99.90;;;;;;4975352;28;19910;-77
2023/05/03 08:25:44;;;;;;;;;;;21.60;99.90;;;;;;4975651;28;19949;-75
2023/05/03 08:28:10;;;;;;;;;;;21.80;99.90;;;;;;4976214;28;20333;-78
2023/05/03 08:30:35;;;;;;;;;;;22.00;99.90;;;;;;4975337;28;19921;-76
2023/05/03 08:33:01;;;;;;;;;;;22.30;99.90;;;;;;4975311;28;20362;-74
2023/05/03 08:35:27;;;;;;;;;;;22.90;99.90;;;;;;4975503;28;19911;-76
2023/05/03 08:37:52;;;;;;;;;;;22.90;99.90;;;;;;4975228;28;19941;-79
2023/05/03 08:40:21;;;;;;;;;;;23.30;99.90;;;;;;4975347;28;19917;-77
2023/05/03 08:42:46;;;;;;;;;;;23.70;99.90;;;;;;4975087;28;19910;-75
2023/05/03 08:45:14;;;;;;;;;;;23.90;99.90;;;;;;4973816;28;20080;-77
2023/05/03 08:47:40;;;;;;;;;;;24.20;99.90;;;;;;4975156;28;19961;-77
2023/05/03 08:50:13;;;;;;;;;;;24.80;99.90;;;;;;4975092;28;19910;-78
2023/05/03 08:52:39;;;;;;;;;;;24.90;99.90;;;;;;4975023;28;20282;-77
2023/05/03 08:55:06;;;;;;;;;;;25.50;99.90;;;;;;4974684;28;19972;-76
2023/05/03 08:57:32;;;;;;;;;;;25.00;99.90;;;;;;4975264;28;19942;-78
2023/05/03 09:00:00;;;;;;;;;;;24.90;99.90;;;;;;4975266;28;19917;-77
2023/05/03 09:02:26;;;;;;;;;;;25.60;99.90;;;;;;4974921;28;19910;-77
2023/05/03 09:04:52;;;;;;;;;;;25.90;99.90;;;;;;4973562;28;19914;-76
2023/05/03 09:07:19;;;;;;;;;;;26.70;99.90;;;;;;4974497;28;19965;-78
2023/05/03 09:09:45;;;;;;;;;;;27.30;99.90;;;;;;4974877;28;19914;-78
2023/05/03 09:12:11;;;;;;;;;;;27.60;99.90;;;;;;4974997;28;19911;-76
2023/05/03 09:14:43;;;;;;;;;;;28.10;99.90;;;;;;4974747;28;20421;-78
2023/05/03 09:17:13;;;;;;;;;;;28.40;99.90;;;;;;4975253;28;19910;-78
2023/05/03 09:19:49;;;;;;;;;;;29.00;99.90;;;;;;4974750;28;19987;-75
2023/05/03 09:22:15;;;;;;;;;;;28.90;99.90;;;;;;4974876;28;19997;-75
2023/05/03 09:24:49;;;;;;;;;;;28.30;99.90;;;;;;4974692;28;20012;-76
2023/05/03 09:27:20;;;;;;;;;;;29.30;99.90;;;;;;4974969;28;19960;-80
2023/05/03 09:29:46;;;;;;;;;;;29.90;99.90;;;;;;4975356;28;19914;-76
2023/05/03 09:32:11;;;;;;;;;;;29.90;99.90;;;;;;4974731;28;19933;-74
2023/05/03 09:34:37;;;;;;;;;;;29.20;99.90;;;;;;4974652;28;19910;-77
2023/05/03 09:37:03;;;;;;;;;;;30.60;99.90;;;;;;4974628;28;20283;-78
2023/05/03 09:39:28;;;;;;;;;;;31.10;99.90;;;;;;4974612;28;19910;-80
2023/05/03 09:41:54;;;;;;;;;;;31.70;99.90;;;;;;4974782;28;19988;-77
2023/05/03 09:44:38;;;;;;;;;;;32.00;99.90;;;;;;4974497;28;19914;-78
2023/05/03 09:47:04;;;;;;;;;;;31.70;99.90;;;;;;4974578;28;19910;-78
2023/05/03 09:49:33;;;;;;;;;;;31.30;99.90;;;;;;4974580;28;19917;-76
2023/05/03 09:52:02;;;;;;;;;;;31.80;99.90;;;;;;4974569;28;19988;-79
2023/05/03 09:54:30;;;;;;;;;;;31.10;99.90;;;;;;4974256;28;19969;-78
2023/05/03 09:56:56;;;;;;;;;;;31.70;99.90;;;;;;4974450;28;20381;-78
2023/05/03 09:59:22;;;;;;;;;;;32.80;99.90;;;;;;4974939;28;19910;-76
2023/05/03 10:01:49;;;;;;;;;;;33.30;99.90;;;;;;4974441;28;19917;-78
2023/05/03 10:04:18;;;;;;;;;;;33.50;99.90;;;;;;4974372;28;19918;-81
2023/05/03 10:06:47;;;;;;;;;;;33.80;99.90;;;;;;4974440;28;19917;-80
2023/05/03 10:09:42;;;;;;;;;;;33.50;99.90;;;;;;4974551;28;20370;-79
2023/05/03 10:12:10;;;;;;;;;;;32.80;99.90;;;;;;4957852;28;19938;-78
2023/05/03 10:14:36;;;;;;;;;;;33.70;99.90;;;;;;4974775;28;20370;-76
2023/05/03 10:17:07;;;;;;;;;;;35.40;99.90;;;;;;4974538;28;19911;-80
2023/05/03 10:19:36;;;;;;;;;;;36.20;99.90;;;;;;4975871;28;19945;-75
2023/05/03 10:22:05;;;;;;;;;;;36.10;99.90;;;;;;4976314;28;20357;-77
2023/05/03 10:24:31;;;;;;;;;;;34.40;99.90;;;;;;4977656;28;20286;-77
2023/05/03 10:26:57;;;;;;;;;;;34.30;99.90;;;;;;4977747;28;19914;-77
2023/05/03 10:29:44;;;;;;;;;;;34.80;99.90;;;;;;4978302;28;19952;-75
2023/05/03 10:32:29;;;;;;;;;;;35.60;99.90;;;;;;4977652;28;20008;-79
2023/05/03 10:35:08;;;;;;;;;;;35.70;99.90;;;;;;4977679;28;19942;-76
2023/05/03 10:37:34;;;;;;;;;;;34.80;99.90;;;;;;4977578;28;19910;-78
2023/05/03 10:40:14;;;;;;;;;;;35.50;99.90;;;;;;4977338;28;19910;-77
2023/05/03 10:42:54;;;;;;;;;;;36.10;99.90;;;;;;4977565;28;19957;-77
2023/05/03 10:45:24;;;;;;;;;;;35.40;99.90;;;;;;4977216;28;20005;-77
2023/05/03 10:48:08;;;;;;;;;;;36.60;99.90;;;;;;4977263;28;20377;-79
2023/05/03 10:50:33;;;;;;;;;;;35.90;99.90;;;;;;4977688;28;20298;-79
2023/05/03 10:52:59;;;;;;;;;;;35.50;99.90;;;;;;4977355;28;19918;-78
2023/05/03 10:55:25;;;;;;;;;;;35.60;99.90;;;;;;4976979;28;19926;-79
2023/05/03 10:57:52;;;;;;;;;;;36.70;99.90;;;;;;4977071;28;19914;-75
2023/05/03 11:00:24;;;;;;;;;;;35.90;99.90;;;;;;4977090;28;19910;-77
2023/05/03 11:03:09;;;;;;;;;;;35.20;99.90;;;;;;4977112;28;20397;-78
2023/05/03 11:05:36;;;;;;;;;;;35.40;99.90;;;;;;4976945;28;19918;-76
2023/05/03 11:08:07;;;;;;;;;;;35.60;99.90;;;;;;4976882;28;19910;-79
2023/05/03 11:10:33;;;;;;;;;;;35.40;99.90;;;;;;4976839;28;20349;-78
2023/05/03 11:12:58;;;;;;;;;;;34.50;99.90;;;;;;4976858;28;19918;-78
2023/05/03 11:15:24;;;;;;;;;;;35.40;99.90;;;;;;4976935;28;19954;-82
2023/05/03 11:17:50;;;;;;;;;;;36.60;99.90;;;;;;4976708;28;20000;-78
2023/05/03 11:20:15;;;;;;;;;;;35.50;99.90;;;;;;4976640;28;20303;-78
2023/05/03 11:22:41;;;;;;;;;;;34.10;99.90;;;;;;4975396;28;19942;-77
2023/05/03 11:25:07;;;;;;;;;;;33.80;99.90;;;;;;4976507;28;20349;-83
2023/05/03 11:27:32;;;;;;;;;;;32.50;99.90;;;;;;4976508;28;19914;-80
2023/05/03 11:29:58;;;;;;;;;;;31.00;99.90;;;;;;4976598;28;19917;-80
2023/05/03 11:32:27;;;;;;;;;;;31.40;99.90;;;;;;4976617;28;19938;-77
2023/05/03 11:34:52;;;;;;;;;;;30.70;99.90;;;;;;4976426;28;19914;-79
2023/05/03 11:37:18;;;;;;;;;;;31.30;99.90;;;;;;4976490;28;19918;-77
2023/05/03 11:39:46;;;;;;;;;;;32.10;99.90;;;;;;4976290;28;19910;-75
2023/05/03 11:42:11;;;;;;;;;;;32.00;99.90;;;;;;4976735;28;20333;-78
2023/05/03 11:44:37;;;;;;;;;;;32.30;99.90;;;;;;4976153;28;19914;-78
2023/05/03 11:47:03;;;;;;;;;;;33.10;99.90;;;;;;4976260;28;20271;-80
2023/05/03 11:49:28;;;;;;;;;;;33.90;99.90;;;;;;4976200;28;20396;-77
2023/05/03 11:51:54;;;;;;;;;;;34.20;99.90;;;;;;4976100;28;19933;-76
2023/05/03 11:54:20;;;;;;;;;;;33.50;99.90;;;;;;4975750;28;19918;-78
2023/05/03 11:56:46;;;;;;;;;;;35.50;99.90;;;;;;4976150;28;19910;-76
2023/05/03 11:59:12;;;;;;;;;;;35.50;99.90;;;;;;4975989;28;19918;-76
2023/05/03 12:01:37;;;;;;;;;;;36.80;99.90;;;;;;4975893;28;19910;-73
2023/05/03 12:04:04;;;;;;;;;;;37.00;99.90;;;;;;4976007;28;19914;-75
2023/05/03 12:06:32;;;;;;;;;;;37.40;99.90;;;;;;4975863;28;19997;-76
2023/05/03 12:08:57;;;;;;;;;;;36.50;99.90;;;;;;4975775;28;19917;-76
2023/05/03 12:11:23;;;;;;;;;;;37.50;99.90;;;;;;4975949;28;20286;-78
2023/05/03 12:13:57;;;;;;;;;;;36.70;99.90;;;;;;4975818;28;20397;-79
2023/05/03 12:16:22;;;;;;;;;;;37.20;99.90;;;;;;4975675;28;19916;-76
2023/05/03 12:19:04;;;;;;;;;;;36.90;99.90;;;;;;4975580;28;19910;-79
2023/05/03 12:21:42;;;;;;;;;;;37.20;99.90;;;;;;4975795;28;19910;-76
2023/05/03 12:24:08;;;;;;;;;;;38.00;99.90;;;;;;4975507;28;19914;-78
2023/05/03 12:26:34;;;;;;;;;;;37.40;99.90;;;;;;4975484;28;20014;-80
2023/05/03 12:29:00;;;;;;;;;;;37.40;99.90;;;;;;4975977;28;19916;-76
2023/05/03 12:31:25;;;;;;;;;;;36.90;99.90;;;;;;4975417;28;19949;-78
2023/05/03 12:33:51;;;;;;;;;;;37.00;99.90;;;;;;4975452;28;20369;-77
2023/05/03 12:36:18;;;;;;;;;;;37.70;99.90;;;;;;4975477;28;20013;-78
2023/05/03 12:38:43;;;;;;;;;;;36.90;99.90;;;;;;4975341;28;19917;-78
2023/05/03 12:41:10;;;;;;;;;;;38.20;99.90;;;;;;4975259;28;19910;-79
2023/05/03 12:43:35;;;;;;;;;;;37.10;99.90;;;;;;4974806;28;20297;-77
2023/05/03 12:46:01;;;;;;;;;;;37.60;99.90;;;;;;4975208;28;19911;-76
2023/05/03 12:48:27;;;;;;;;;;;38.70;99.90;;;;;;4975313;28;19910;-77
2023/05/03 12:50:53;;;;;;;;;;;;;;;;;;4975240;28;19910;-79
2023/05/03 12:53:19;;;;;;;;;;;;;;;;;;4975131;28;19925;-78
2023/05/03 12:55:45;;;;;;;;;;;;;;;;;;4974859;28;20402;-76
2023/05/03 12:58:11;;;;;;;;;;;;;;;;;;4975168;28;19917;-78
2023/05/03 13:00:37;;;;;;;;;;;;;;;;;;4973932;28;19910;-80
2023/05/03 13:03:03;;;;;;;;;;;;;;;;;;4975252;28;19917;-77
2023/05/03 13:05:30;;;;;;;;;;;;;;;;;;4975152;28;20371;-78
2023/05/03 13:07:57;;;;;;;;;;;;;;;;;;4994550;28;19936;-79
2023/05/03 13:10:25;;;;;;;;;;;;;;;;;;4994573;28;20004;-76
2023/05/03 13:12:52;;;;;;;;;;;;;;;;;;4994723;28;19914;-79
2023/05/03 13:15:18;;;;;;;;;;;;;;;;;;4994608;28;20001;-77
2023/05/03 13:17:45;;;;;;;;;;;;;;;;;;4994530;28;19910;-76
2023/05/03 13:20:11;;;;;;;;;;;;;;;;;;4994870;28;19910;-79
2023/05/03 13:22:36;;;;;;;;;;;;;;;;;;4994574;28;19910;-79
2023/05/03 13:25:03;;;;;;;;;;;;;;;;;;4994378;28;19921;-79
2023/05/03 13:27:29;;;;;;;;;;;;;;;;;;4994492;28;20297;-77
2023/05/03 13:29:54;;;;;;;;;;;;;;;;;;4977451;28;19910;-76
2023/05/03 13:32:20;;;;;;;;;;;;;;;;;;4994605;28;20000;-76
2023/05/03 13:34:46;;;;;;;;;;;;;;;;;;4994516;28;19980;-79
2023/05/03 13:37:17;;;;;;;;;;;;;;;;;;4994383;28;19952;-78
2023/05/03 13:39:43;;;;;;;;;;;;;;;;;;4994360;28;19910;-77
2023/05/03 13:42:09;;;;;;;;;;;;;;;;;;4995013;28;19910;-78
2023/05/03 13:44:35;;;;;;;;;;;;;;;;;;4976684;28;20367;-79
2023/05/03 13:47:01;;;;;;;;;;;;;;;;;;4994161;28;19933;-74
2023/05/03 13:49:27;;;;;;;;;;;;;;;;;;4994321;28;19910;-77
2023/05/03 13:51:53;;;;;;;;;;;;;;;;;;4994391;28;19941;-77
2023/05/03 13:54:19;;;;;;;;;;;;;;;;;;4996769;28;19922;-76
2023/05/03 13:56:45;;;;;;;;;;;;;;;;;;4998138;28;19910;-77
2023/05/03 13:59:11;;;;;;;;;;;;;;;;;;4998085;28;19961;-78
2023/05/03 14:01:37;;;;;;;;;;;;;;;;;;4997827;28;19909;-77
2023/05/03 14:04:03;;;;;;;;;;;;;;;;;;4997951;28;20369;-76
2023/05/03 14:06:30;;;;;;;;;;;;;;;;;;4997774;28;19910;-76
2023/05/03 14:08:56;;;;;;;;;;;;;;;;;;4998034;28;19941;-75
2023/05/03 14:11:23;;;;;;;;;;;;;;;;;;4997859;28;19910;-77
2023/05/03 14:13:49;;;;;;;;;;;;;;;;;;4998047;28;19933;-79
2023/05/03 14:16:15;;;;;;;;;;;;;;;;;;4997820;28;19937;-74
2023/05/03 14:18:41;;;;;;;;;;;;;;;;;;4997386;28;19909;-77
2023/05/03 14:21:07;;;;;;;;;;;;;;;;;;4980100;28;19992;-77
2023/05/03 14:23:33;;;;;;;;;;;;;;;;;;4997324;28;19918;-76
2023/05/03 14:26:00;;;;;;;;;;;;;;;;;;4957924;28;19923;-74
2023/05/03 14:28:26;;;;;;;;;;;;;;;;;;4954662;29;20298;-75
2023/05/03 14:30:52;;;;;;;;;;;;;;;;;;4958249;29;19910;-74
2023/05/03 14:33:18;;;;;;;;;;;;;;;;;;4940846;29;20387;-74
2023/05/03 14:35:46;;;;;;;;;;;;;;;;;;4957807;29;19927;-76
2023/05/03 14:38:13;;;;;;;;;;;;;;;;;;4958146;29;19918;-78
2023/05/03 14:40:40;;;;;;;;;;;;;;;;;;4941038;29;19914;-76
2023/05/03 14:43:07;;;;;;;;;;;;;;;;;;4958143;29;19914;-78